Time;durP1;ratioP1;P1;durP2;ratioP2;P2;SDS_P1;SDS_P2;PMS_P1;PMS_P2;Temp;Humidity;BMP_temperature;BMP_pressure;BME280_temperature;BME280_humidity;BME280_pressure;Samples;Min_cycle;Max_cycle;Signal;HPM_P1;HPM_P2
2023/09/13 00:01:42;;;;;;;2.17;1.10;;;18.90;99.90;;;;;;4927080;29;20431;-83
2023/09/13 00:04:08;;;;;;;1.80;0.90;;;18.80;99.90;;;;;;4931055;29;20046;-84
2023/09/13 00:06:34;;;;;;;1.60;0.68;;;18.90;99.90;;;;;;4928300;29;20024;-83
2023/09/13 00:09:00;;;;;;;1.58;0.80;;;18.90;99.90;;;;;;4944107;28;20039;-83
2023/09/13 00:11:26;;;;;;;2.05;0.98;;;18.90;99.90;;;;;;4926127;29;20026;-83
2023/09/13 00:13:51;;;;;;;1.85;0.85;;;18.80;99.90;;;;;;4931593;28;20039;-82
2023/09/13 00:16:18;;;;;;;1.90;0.95;;;18.80;99.90;;;;;;4931619;29;20057;-83
2023/09/13 00:18:44;;;;;;;1.67;0.75;;;18.80;99.90;;;;;;4924739;28;20038;-83
2023/09/13 00:21:11;;;;;;;1.85;0.85;;;18.90;99.90;;;;;;4942302;29;20027;-83
2023/09/13 00:23:37;;;;;;;1.90;1.05;;;18.80;99.90;;;;;;4926332;29;20035;-83
2023/09/13 00:26:03;;;;;;;2.53;0.90;;;18.80;99.90;;;;;;4929664;29;20392;-83
2023/09/13 00:28:29;;;;;;;2.30;1.00;;;18.90;99.90;;;;;;4926209;29;20031;-84
2023/09/13 00:30:56;;;;;;;2.13;0.90;;;18.80;99.90;;;;;;4944049;28;20073;-83
2023/09/13 00:33:22;;;;;;;1.92;0.82;;;18.80;99.90;;;;;;4942596;28;20046;-83
2023/09/13 00:35:48;;;;;;;2.17;1.17;;;18.90;99.90;;;;;;4943059;29;20023;-82
2023/09/13 00:38:13;;;;;;;1.83;0.95;;;18.90;99.90;;;;;;4926699;29;20035;-83
2023/09/13 00:40:39;;;;;;;1.77;0.70;;;18.80;99.90;;;;;;4928002;29;20020;-83
2023/09/13 00:43:05;;;;;;;2.15;0.93;;;18.80;99.90;;;;;;4927016;29;20407;-83
2023/09/13 00:45:33;;;;;;;2.10;0.80;;;18.80;99.90;;;;;;4946411;29;20038;-82
2023/09/13 00:47:59;;;;;;;1.83;0.60;;;18.80;99.90;;;;;;4942043;29;20089;-83
2023/09/13 00:50:26;;;;;;;2.50;0.70;;;18.70;99.90;;;;;;4930807;29;20066;-82
2023/09/13 00:52:53;;;;;;;1.85;0.70;;;18.70;99.90;;;;;;4926570;29;20118;-85
2023/09/13 00:55:20;;;;;;;1.45;0.60;;;18.70;99.90;;;;;;4921966;29;20047;-81
2023/09/13 00:57:50;;;;;;;1.00;0.50;;;18.70;99.90;;;;;;4927589;29;20036;-83
2023/09/13 01:00:17;;;;;;;1.10;0.60;;;18.70;99.90;;;;;;4920331;28;20035;-84
2023/09/13 01:02:44;;;;;;;1.60;0.63;;;18.70;99.90;;;;;;4941148;29;20062;-86
2023/09/13 01:05:13;;;;;;;1.45;0.60;;;18.70;99.90;;;;;;4926846;29;20057;-83
2023/09/13 01:07:40;;;;;;;1.40;0.57;;;18.70;99.90;;;;;;4924420;28;20036;-83
2023/09/13 01:10:10;;;;;;;2.22;0.63;;;18.70;99.90;;;;;;4940968;28;20027;-82
2023/09/13 01:12:36;;;;;;;1.30;0.50;;;18.70;99.90;;;;;;4930437;29;20569;-82
2023/09/13 01:15:06;;;;;;;1.17;0.50;;;18.70;99.90;;;;;;4926902;29;20035;-82
2023/09/13 01:17:52;;;;;;;2.75;0.57;;;18.70;99.90;;;;;;4924909;28;20028;-84
2023/09/13 01:20:44;;;;;;;1.27;0.60;;;18.70;99.90;;;;;;4924809;28;20046;-83
2023/09/13 01:23:47;;;;;;;1.33;0.50;;;18.80;99.90;;;;;;4943865;29;20027;-84
2023/09/13 01:26:37;;;;;;;1.70;0.55;;;18.70;99.90;;;;;;4934662;29;20066;-82
2023/09/13 01:29:05;;;;;;;0.98;0.50;;;18.70;99.90;;;;;;4925299;28;20026;-83
2023/09/13 01:31:31;;;;;;;1.40;0.60;;;18.70;99.90;;;;;;4941094;28;20035;-83
2023/09/13 01:33:57;;;;;;;1.23;0.52;;;18.70;99.90;;;;;;4944420;29;20035;-82
2023/09/13 01:36:23;;;;;;;1.17;0.60;;;18.70;99.90;;;;;;4942568;29;20031;-82
2023/09/13 01:38:48;;;;;;;2.08;0.60;;;18.70;99.90;;;;;;4928804;29;20042;-82
2023/09/13 01:41:22;;;;;;;1.42;0.63;;;18.70;99.90;;;;;;4929683;29;20032;-81
2023/09/13 01:43:53;;;;;;;1.80;0.60;;;18.70;99.90;;;;;;4940703;29;20063;-83
2023/09/13 01:46:26;;;;;;;1.95;0.70;;;18.70;99.90;;;;;;4925215;29;20027;-82
2023/09/13 01:48:56;;;;;;;1.75;0.60;;;18.70;99.90;;;;;;4927539;29;20027;-82
2023/09/13 01:51:25;;;;;;;2.13;0.60;;;18.70;99.90;;;;;;4929624;29;20027;-82
2023/09/13 01:53:50;;;;;;;1.67;0.60;;;18.70;99.90;;;;;;4942018;29;20076;-86
2023/09/13 01:56:21;;;;;;;1.33;0.60;;;18.70;99.90;;;;;;4943595;29;20373;-82
2023/09/13 01:58:50;;;;;;;;;;;18.70;99.90;;;;;;4925541;29;20045;-83
2023/09/13 02:01:17;;;;;;;1.50;0.50;;;18.70;99.90;;;;;;4937868;29;19914;-82
2023/09/13 02:03:43;;;;;;;3.35;0.60;;;18.70;99.90;;;;;;4926520;29;20023;-83
2023/09/13 02:06:09;;;;;;;1.92;0.70;;;18.60;99.90;;;;;;4941328;29;20031;-83
2023/09/13 02:08:36;;;;;;;1.35;0.60;;;18.70;99.90;;;;;;4942470;29;20038;-82
2023/09/13 02:11:02;;;;;;;1.33;0.52;;;18.60;99.90;;;;;;4929490;29;20089;-83
2023/09/13 02:13:27;;;;;;;2.53;0.88;;;18.60;99.90;;;;;;4925964;29;20039;-82
2023/09/13 02:15:53;;;;;;;1.98;0.70;;;18.60;99.90;;;;;;4930008;29;20102;-83
2023/09/13 02:18:19;;;;;;;3.20;0.70;;;18.60;99.90;;;;;;4939488;28;20512;-82
2023/09/13 02:20:45;;;;;;;1.55;0.60;;;18.60;99.90;;;;;;4941820;29;20031;-82
2023/09/13 02:23:11;;;;;;;1.63;0.73;;;18.50;99.90;;;;;;4924371;29;20392;-83
2023/09/13 02:25:37;;;;;;;1.85;0.80;;;18.50;99.90;;;;;;4925232;29;20032;-83
2023/09/13 02:28:04;;;;;;;1.85;0.80;;;18.50;99.90;;;;;;4924415;28;20059;-84
2023/09/13 02:30:31;;;;;;;2.85;0.98;;;18.50;99.90;;;;;;4941044;29;20035;-83
2023/09/13 02:32:57;;;;;;;1.70;0.80;;;18.50;99.90;;;;;;4929185;28;20097;-82
2023/09/13 02:35:22;;;;;;;1.75;0.75;;;18.50;99.90;;;;;;4929283;29;20024;-82
2023/09/13 02:37:48;;;;;;;1.65;0.70;;;18.50;99.90;;;;;;4924461;29;20074;-81
2023/09/13 02:40:14;;;;;;;3.17;0.80;;;18.50;99.90;;;;;;4925847;29;20020;-83
2023/09/13 02:42:40;;;;;;;1.55;0.80;;;18.50;99.90;;;;;;4928788;29;20052;-85
2023/09/13 02:45:07;;;;;;;2.03;1.10;;;18.50;99.90;;;;;;4929512;29;20105;-81
2023/09/13 02:47:33;;;;;;;2.50;0.90;;;18.50;99.90;;;;;;4922849;29;20430;-82
2023/09/13 02:49:59;;;;;;;2.30;0.75;;;18.50;99.90;;;;;;4944019;28;20023;-85
2023/09/13 02:52:28;;;;;;;1.50;0.88;;;18.50;99.90;;;;;;4927743;29;20511;-84
2023/09/13 02:54:55;;;;;;;2.40;1.02;;;18.50;99.90;;;;;;4946046;29;20073;-84
2023/09/13 02:57:20;;;;;;;2.95;1.00;;;18.50;99.90;;;;;;4957778;28;20027;-85
2023/09/13 02:59:46;;;;;;;1.65;0.85;;;18.50;99.90;;;;;;4932144;29;20042;-84
2023/09/13 03:02:12;;;;;;;1.92;0.98;;;18.50;99.90;;;;;;4935405;28;20611;-87
2023/09/13 03:04:40;;;;;;;1.73;0.77;;;18.50;99.90;;;;;;4913238;28;20085;-82
2023/09/13 03:07:06;;;;;;;2.38;1.10;;;18.50;99.90;;;;;;4927446;29;20044;-83
2023/09/13 03:09:31;;;;;;;3.88;0.90;;;18.50;99.90;;;;;;4932773;28;20027;-83
2023/09/13 03:11:57;;;;;;;2.03;1.00;;;18.50;99.90;;;;;;4943728;29;20434;-85
2023/09/13 03:14:23;;;;;;;2.10;0.88;;;18.50;99.90;;;;;;4944255;29;20066;-83
2023/09/13 03:16:49;;;;;;;2.28;1.40;;;18.50;99.90;;;;;;4930682;29;20050;-82
2023/09/13 03:19:14;;;;;;;2.33;0.90;;;18.40;99.90;;;;;;4930157;29;20039;-83
2023/09/13 03:21:44;;;;;;;1.80;1.00;;;18.40;99.90;;;;;;4928897;29;20484;-84
2023/09/13 03:24:10;;;;;;;2.72;0.80;;;18.40;99.90;;;;;;4927313;28;20455;-86
2023/09/13 03:26:35;;;;;;;2.22;0.70;;;18.40;99.90;;;;;;4944546;28;20062;-83
2023/09/13 03:29:02;;;;;;;2.08;0.80;;;18.40;99.90;;;;;;4930564;29;22540;-83
2023/09/13 03:31:28;;;;;;;2.47;0.80;;;18.40;99.90;;;;;;4928351;29;20027;-81
2023/09/13 03:33:58;;;;;;;2.92;1.00;;;18.40;99.90;;;;;;4919019;29;20035;-83
2023/09/13 03:36:28;;;;;;;2.80;1.02;;;18.40;99.90;;;;;;4932205;29;20035;-83
2023/09/13 03:38:55;;;;;;;2.92;0.93;;;18.40;99.90;;;;;;4943758;29;20031;-82
2023/09/13 03:41:23;;;;;;;1.88;0.90;;;18.30;99.90;;;;;;4932390;28;20027;-83
2023/09/13 03:43:49;;;;;;;2.13;1.02;;;18.30;99.90;;;;;;4929814;29;20529;-83
2023/09/13 03:46:15;;;;;;;2.63;0.73;;;18.30;99.90;;;;;;4941540;29;20032;-82
2023/09/13 03:48:42;;;;;;;1.77;0.90;;;18.30;99.90;;;;;;4913766;29;20464;-85
2023/09/13 03:51:09;;;;;;;2.55;1.00;;;18.30;99.90;;;;;;4926937;29;20027;-85
2023/09/13 03:53:36;;;;;;;1.80;1.00;;;18.30;99.90;;;;;;4925985;29;20101;-83
2023/09/13 03:56:03;;;;;;;3.92;1.30;;;18.30;99.90;;;;;;4937849;29;20465;-82
2023/09/13 03:58:29;;;;;;;5.57;2.00;;;18.30;99.90;;;;;;4934381;29;20123;-82
2023/09/13 04:00:55;;;;;;;2.85;1.23;;;18.20;99.90;;;;;;4942436;29;20110;-83
2023/09/13 04:03:21;;;;;;;2.40;1.30;;;18.20;99.90;;;;;;4927392;29;20027;-82
2023/09/13 04:05:47;;;;;;;2.15;1.30;;;18.10;99.90;;;;;;4926979;29;20031;-85
2023/09/13 04:08:13;;;;;;;2.53;1.48;;;18.10;99.90;;;;;;4925558;29;20036;-84
2023/09/13 04:10:39;;;;;;;4.28;1.60;;;18.20;99.90;;;;;;4920253;29;20035;-85
2023/09/13 04:13:05;;;;;;;2.65;1.25;;;18.20;99.90;;;;;;4925492;29;20059;-84
2023/09/13 04:15:31;;;;;;;3.60;1.33;;;18.20;99.90;;;;;;4942454;29;20487;-81
2023/09/13 04:17:57;;;;;;;3.97;1.45;;;18.20;99.90;;;;;;4925946;29;20036;-82
2023/09/13 04:20:23;;;;;;;2.15;1.20;;;18.20;99.90;;;;;;4924683;29;20294;-83
2023/09/13 04:22:49;;;;;;;2.65;1.67;;;18.20;99.90;;;;;;4930049;29;20027;-83
2023/09/13 04:25:15;;;;;;;3.08;1.63;;;18.20;99.90;;;;;;4930466;29;20027;-84
2023/09/13 04:27:44;;;;;;;3.05;2.35;;;18.20;99.90;;;;;;4937171;29;20058;-82
2023/09/13 04:30:10;;;;;;;5.32;4.28;;;18.20;99.90;;;;;;4929594;29;20049;-83
2023/09/13 04:32:38;;;;;;;6.25;4.97;;;18.30;99.90;;;;;;4923620;29;20614;-82
2023/09/13 04:35:04;;;;;;;8.55;5.88;;;18.30;99.90;;;;;;4943067;29;20023;-83
2023/09/13 04:37:30;;;;;;;5.95;4.15;;;18.30;99.90;;;;;;4930129;29;20076;-81
2023/09/13 04:39:58;;;;;;;6.40;4.45;;;18.30;99.90;;;;;;4943975;29;20034;-84
2023/09/13 04:42:24;;;;;;;7.57;5.82;;;18.30;99.90;;;;;;4876953;29;1435858;-84
2023/09/13 04:44:50;;;;;;;8.95;6.43;;;18.30;99.90;;;;;;5011304;28;20475;-84
2023/09/13 04:47:17;;;;;;;9.10;6.88;;;18.30;99.90;;;;;;4943232;29;20110;-83
2023/09/13 04:49:43;;;;;;;11.20;8.25;;;18.40;99.90;;;;;;4942817;29;20030;-83
2023/09/13 04:52:10;;;;;;;13.18;10.25;;;18.50;99.90;;;;;;4931491;29;20040;-83
2023/09/13 04:54:36;;;;;;;11.25;8.35;;;18.50;99.90;;;;;;4936811;29;20034;-84
2023/09/13 04:57:05;;;;;;;20.52;16.20;;;18.50;99.90;;;;;;4921586;28;20030;-82
2023/09/13 04:59:45;;;;;;;27.17;20.77;;;18.70;99.90;;;;;;4940037;29;20082;-83
2023/09/13 05:02:12;;;;;;;33.90;26.63;;;18.60;99.90;;;;;;4923575;29;20035;-82
2023/09/13 05:04:39;;;;;;;39.25;27.60;;;18.60;99.90;;;;;;4909784;28;20031;-83
2023/09/13 05:07:05;;;;;;;41.75;29.27;;;18.50;99.90;;;;;;4943998;29;20127;-83
2023/09/13 05:09:32;;;;;;;36.88;26.48;;;18.50;99.90;;;;;;4907874;28;20044;-83
2023/09/13 05:11:59;;;;;;;45.20;30.52;;;18.50;99.90;;;;;;4930278;28;20039;-83
2023/09/13 05:14:25;;;;;;;49.30;34.33;;;18.50;99.90;;;;;;4930222;28;20058;-82
2023/09/13 05:16:51;;;;;;;50.72;36.92;;;18.50;99.90;;;;;;4927160;28;20036;-82
2023/09/13 05:19:18;;;;;;;52.00;35.40;;;18.50;99.90;;;;;;4922444;28;20031;-83
2023/09/13 05:21:44;;;;;;;51.38;36.15;;;18.40;99.90;;;;;;4925344;28;20042;-83
2023/09/13 05:24:09;;;;;;;54.17;38.05;;;18.40;99.90;;;;;;4926054;28;20420;-83
2023/09/13 05:26:35;;;;;;;55.30;35.78;;;18.40;99.90;;;;;;4910348;28;22077;-82
2023/09/13 05:29:02;;;;;;;47.25;33.72;;;18.40;99.90;;;;;;4924774;28;20039;-84
2023/09/13 05:31:28;;;;;;;53.17;36.15;;;18.40;99.90;;;;;;4913222;28;20032;-84
2023/09/13 05:33:54;;;;;;;52.00;36.28;;;18.40;99.90;;;;;;4920285;29;20035;-85
2023/09/13 05:36:20;;;;;;;49.35;34.50;;;18.30;99.90;;;;;;4944553;28;20085;-82
2023/09/13 05:38:45;;;;;;;54.75;38.08;;;18.40;99.90;;;;;;4926742;29;20035;-85
2023/09/13 05:41:12;;;;;;;52.33;36.70;;;18.30;99.90;;;;;;4934337;29;20066;-83
2023/09/13 05:43:39;;;;;;;52.28;36.15;;;18.40;99.90;;;;;;4928884;29;20044;-83
2023/09/13 05:46:05;;;;;;;53.83;35.90;;;18.30;99.90;;;;;;4942520;29;20040;-83
2023/09/13 05:48:32;;;;;;;50.53;33.50;;;18.40;99.90;;;;;;4927948;29;20391;-85
2023/09/13 05:50:58;;;;;;;51.78;35.50;;;18.30;99.90;;;;;;4944575;29;20031;-83
2023/09/13 05:53:23;;;;;;;59.47;37.97;;;18.30;99.90;;;;;;4925978;28;20499;-85
2023/09/13 05:55:50;;;;;;;53.35;36.05;;;18.30;99.90;;;;;;4938739;29;20038;-82
2023/09/13 05:58:16;;;;;;;55.15;36.47;;;18.30;99.90;;;;;;4942683;29;20031;-82
2023/09/13 06:00:43;;;;;;;62.30;39.90;;;18.30;99.90;;;;;;4941991;29;20507;-82
2023/09/13 06:03:10;;;;;;;61.63;38.50;;;18.30;99.90;;;;;;4930264;29;20033;-85
2023/09/13 06:05:35;;;;;;;55.80;36.05;;;18.40;99.90;;;;;;4930213;28;20170;-82
2023/09/13 06:08:02;;;;;;;48.42;31.98;;;18.30;99.90;;;;;;4941570;28;20114;-83
2023/09/13 06:10:28;;;;;;;59.72;37.63;;;18.40;99.90;;;;;;4939101;28;20039;-82
2023/09/13 06:12:54;;;;;;;52.70;34.28;;;18.40;99.90;;;;;;4941773;29;20042;-82
2023/09/13 06:15:19;;;;;;;59.53;37.42;;;18.40;99.90;;;;;;4943152;29;20020;-82
2023/09/13 06:17:45;;;;;;;60.72;37.70;;;18.40;99.90;;;;;;4942195;29;20038;-83
2023/09/13 06:20:11;;;;;;;53.65;34.75;;;18.40;99.90;;;;;;4942983;29;20130;-82
2023/09/13 06:22:37;;;;;;;52.78;33.85;;;18.40;99.90;;;;;;4942851;29;20039;-83
2023/09/13 06:25:03;;;;;;;65.95;40.97;;;18.40;99.90;;;;;;4944009;28;20039;-83
2023/09/13 06:27:29;;;;;;;56.25;36.13;;;18.40;99.90;;;;;;4944211;29;20035;-83
2023/09/13 06:29:55;;;;;;;57.17;37.92;;;18.40;99.90;;;;;;4947031;28;20031;-83
2023/09/13 06:32:21;;;;;;;56.28;35.20;;;18.40;99.90;;;;;;4946074;29;20024;-83
2023/09/13 06:34:47;;;;;;;55.85;37.22;;;18.40;99.90;;;;;;4913856;29;20027;-83
2023/09/13 06:37:13;;;;;;;56.15;37.55;;;18.40;99.90;;;;;;4945472;28;20047;-80
2023/09/13 06:39:38;;;;;;;56.00;37.55;;;18.50;99.90;;;;;;4919775;29;20466;-83
2023/09/13 06:42:06;;;;;;;52.20;34.75;;;18.40;99.90;;;;;;4946231;28;20055;-82
2023/09/13 06:44:32;;;;;;;58.00;37.17;;;18.50;99.90;;;;;;4946828;29;20028;-83
2023/09/13 06:46:58;;;;;;;43.97;29.98;;;18.50;99.90;;;;;;4945151;29;20027;-83
2023/09/13 06:49:24;;;;;;;51.33;34.03;;;18.60;99.90;;;;;;4929191;28;20457;-83
2023/09/13 06:51:51;;;;;;;52.38;35.63;;;18.50;99.90;;;;;;4943705;29;20067;-82
2023/09/13 06:54:18;;;;;;;55.70;35.92;;;18.60;99.90;;;;;;4944299;29;20023;-82
2023/09/13 06:56:44;;;;;;;52.40;35.17;;;18.50;99.90;;;;;;4940084;29;20031;-82
2023/09/13 06:59:10;;;;;;;60.75;38.38;;;18.50;99.90;;;;;;4938370;29;20019;-82
2023/09/13 07:01:36;;;;;;;61.33;39.83;;;18.50;99.90;;;;;;4932194;29;20027;-82
2023/09/13 07:04:03;;;;;;;58.63;39.13;;;18.50;99.90;;;;;;4946897;29;20055;-83
2023/09/13 07:06:29;;;;;;;54.40;35.42;;;18.50;99.90;;;;;;4945821;29;20115;-82
2023/09/13 07:08:55;;;;;;;54.70;36.53;;;18.50;99.90;;;;;;4945529;28;20097;-81
2023/09/13 07:11:22;;;;;;;57.03;37.55;;;18.50;99.90;;;;;;4944914;29;20027;-83
2023/09/13 07:13:47;;;;;;;53.30;35.63;;;18.50;99.90;;;;;;4943713;29;20039;-83
2023/09/13 07:16:13;;;;;;;48.35;33.55;;;18.50;99.90;;;;;;4927916;28;20031;-83
2023/09/13 07:18:39;;;;;;;47.53;32.95;;;18.60;99.90;;;;;;4935210;29;20190;-82
2023/09/13 07:21:05;;;;;;;39.67;25.92;;;18.60;99.90;;;;;;4939771;29;20024;-83
2023/09/13 07:23:30;;;;;;;7.43;4.55;;;18.20;99.90;;;;;;4944910;29;20475;-82
2023/09/13 07:25:57;;;;;;;3.50;1.92;;;17.20;99.90;;;;;;4932304;29;20034;-83
2023/09/13 07:28:22;;;;;;;1.05;0.40;;;17.00;99.90;;;;;;5011620;28;20031;-82
2023/09/13 07:30:48;;;;;;;0.90;0.20;;;16.60;99.90;;;;;;4928743;29;20032;-85
2023/09/13 07:33:14;;;;;;;1.05;0.13;;;16.40;99.90;;;;;;4930244;29;20082;-82
2023/09/13 07:35:40;;;;;;;1.90;0.10;;;16.20;99.90;;;;;;4927784;29;20134;-82
2023/09/13 07:38:05;;;;;;;2.13;0.10;;;16.00;99.90;;;;;;4931391;29;20050;-82
2023/09/13 07:40:31;;;;;;;1.10;0.10;;;15.90;99.90;;;;;;4942558;28;20039;-82
2023/09/13 07:42:59;;;;;;;2.05;0.20;;;15.90;99.90;;;;;;4941399;29;20136;-81
2023/09/13 07:45:25;;;;;;;0.50;0.10;;;16.00;99.90;;;;;;4931867;28;20464;-82
2023/09/13 07:47:50;;;;;;;0.90;0.10;;;15.90;99.90;;;;;;4926757;29;20174;-82
2023/09/13 07:50:40;;;;;;;1.25;0.00;;;15.80;99.90;;;;;;4929886;29;20031;-82
2023/09/13 07:53:06;;;;;;;0.75;0.25;;;15.90;99.90;;;;;;4921798;29;20048;-82
2023/09/13 07:55:32;;;;;;;0.88;0.10;;;15.70;99.90;;;;;;4937826;29;20114;-82
2023/09/13 07:57:58;;;;;;;1.02;0.22;;;15.70;99.90;;;;;;4940529;29;20032;-82
2023/09/13 08:00:24;;;;;;;1.00;0.10;;;15.80;99.90;;;;;;4926120;29;20080;-82
2023/09/13 08:02:49;;;;;;;0.50;0.10;;;15.70;99.90;;;;;;4932284;29;20114;-83
2023/09/13 08:05:16;;;;;;;0.75;0.20;;;15.70;99.90;;;;;;4927870;29;20046;-83
2023/09/13 08:07:44;;;;;;;0.77;0.10;;;15.90;99.90;;;;;;4931680;29;20035;-82
2023/09/13 08:10:09;;;;;;;0.68;0.10;;;16.00;99.90;;;;;;4928227;29;20030;-82
2023/09/13 08:12:35;;;;;;;0.55;0.10;;;16.20;99.90;;;;;;4942520;29;20129;-81
2023/09/13 08:15:01;;;;;;;0.45;0.10;;;16.30;99.90;;;;;;4943767;29;20038;-83
2023/09/13 08:17:27;;;;;;;0.60;0.10;;;16.30;99.90;;;;;;4929592;28;20038;-81
2023/09/13 08:19:52;;;;;;;2.97;0.52;;;16.50;99.90;;;;;;4929688;29;20431;-83
2023/09/13 08:22:18;;;;;;;1.52;0.20;;;16.80;99.90;;;;;;4944292;29;20285;-81
2023/09/13 08:24:44;;;;;;;0.80;0.20;;;16.90;99.90;;;;;;4920783;29;20059;-82
2023/09/13 08:27:09;;;;;;;0.65;0.20;;;16.80;99.90;;;;;;4926077;29;20024;-81
2023/09/13 08:29:35;;;;;;;0.57;0.20;;;16.80;99.90;;;;;;4927806;29;20071;-81
2023/09/13 08:32:01;;;;;;;2.00;0.20;;;16.60;99.90;;;;;;4925445;29;20032;-80
2023/09/13 08:34:26;;;;;;;1.67;0.10;;;16.60;99.90;;;;;;4942676;29;20387;-80
2023/09/13 08:36:55;;;;;;;0.93;0.20;;;16.60;99.90;;;;;;4944009;29;20145;-83
2023/09/13 08:39:20;;;;;;;1.95;0.15;;;16.80;99.90;;;;;;4924710;29;20031;-82
2023/09/13 08:41:50;;;;;;;0.93;0.20;;;16.80;99.90;;;;;;4925529;29;20030;-80
2023/09/13 08:44:20;;;;;;;1.08;0.20;;;17.10;99.90;;;;;;4936230;28;20117;-80
2023/09/13 08:46:56;;;;;;;1.33;0.20;;;17.10;99.90;;;;;;4927108;29;20024;-80
2023/09/13 08:49:26;;;;;;;0.90;0.10;;;17.20;99.90;;;;;;4926182;28;20396;-81
2023/09/13 08:51:52;;;;;;;0.63;0.20;;;17.50;99.90;;;;;;4930501;29;20044;-79
2023/09/13 08:54:19;;;;;;;0.70;0.20;;;17.40;99.90;;;;;;4943858;29;20459;-81
2023/09/13 08:56:48;;;;;;;1.23;0.20;;;17.40;99.90;;;;;;4929145;29;20082;-80
2023/09/13 08:59:14;;;;;;;1.10;0.17;;;17.40;99.90;;;;;;4943947;29;20379;-80
2023/09/13 09:01:53;;;;;;;1.58;0.20;;;17.20;99.90;;;;;;4943857;29;20027;-79
2023/09/13 09:04:20;;;;;;;1.55;0.20;;;17.10;99.90;;;;;;4942546;29;20028;-80
2023/09/13 09:06:47;;;;;;;1.45;0.20;;;16.90;99.90;;;;;;4942813;29;20059;-79
2023/09/13 09:09:17;;;;;;;1.58;0.20;;;17.20;99.90;;;;;;4942413;29;20031;-86
2023/09/13 09:11:47;;;;;;;1.80;0.30;;;17.20;99.90;;;;;;4926543;29;20484;-85
2023/09/13 09:14:15;;;;;;;1.05;0.20;;;17.00;99.90;;;;;;4929294;29;20089;-80
2023/09/13 09:16:43;;;;;;;1.15;0.20;;;17.10;99.90;;;;;;4936457;29;20094;-81
2023/09/13 09:19:08;;;;;;;2.20;0.20;;;16.90;99.90;;;;;;4940015;29;20051;-81
2023/09/13 09:21:35;;;;;;;1.40;0.20;;;16.90;99.90;;;;;;4926003;29;20032;-82
2023/09/13 09:24:01;;;;;;;0.80;0.17;;;17.30;99.90;;;;;;4943194;29;20043;-80
2023/09/13 09:26:26;;;;;;;0.63;0.20;;;17.60;99.90;;;;;;4942787;29;20019;-80
2023/09/13 09:28:53;;;;;;;0.90;0.20;;;18.00;99.90;;;;;;4926035;29;20408;-82
2023/09/13 09:31:24;;;;;;;1.45;0.20;;;18.30;99.90;;;;;;4929341;29;20024;-81
2023/09/13 09:34:03;;;;;;;2.05;0.20;;;18.70;99.90;;;;;;4924480;29;20566;-82
2023/09/13 09:36:34;;;;;;;1.03;0.10;;;18.70;99.90;;;;;;4927932;29;20020;-80
2023/09/13 09:39:01;;;;;;;0.90;0.10;;;18.90;99.90;;;;;;4920150;29;20054;-80
2023/09/13 09:41:32;;;;;;;1.08;0.20;;;19.20;99.90;;;;;;4924803;29;20035;-85
2023/09/13 09:43:58;;;;;;;0.98;0.20;;;19.50;99.90;;;;;;4939811;29;20051;-87
2023/09/13 09:46:23;;;;;;;1.20;0.20;;;19.20;99.90;;;;;;4929208;29;20034;-85
2023/09/13 09:48:51;;;;;;;0.70;0.10;;;19.10;99.90;;;;;;4928382;29;20020;-81
2023/09/13 09:51:17;;;;;;;0.68;0.10;;;19.20;99.90;;;;;;4926568;29;20031;-83
2023/09/13 09:53:44;;;;;;;3.67;0.20;;;19.30;99.90;;;;;;4928967;29;20043;-86
2023/09/13 09:56:14;;;;;;;0.70;0.10;;;19.60;99.90;;;;;;4923431;28;20075;-82
2023/09/13 09:58:40;;;;;;;1.40;0.10;;;19.60;99.90;;;;;;4941888;29;20095;-81
2023/09/13 10:01:07;;;;;;;0.32;0.10;;;19.60;99.90;;;;;;4938790;29;20390;-87
2023/09/13 10:03:34;;;;;;;0.60;0.10;;;19.40;99.90;;;;;;4926077;29;20491;-81
2023/09/13 10:06:03;;;;;;;1.23;0.10;;;19.40;99.90;;;;;;4941694;29;20032;-82
2023/09/13 10:08:46;;;;;;;1.30;0.25;;;19.60;99.90;;;;;;4924407;29;20430;-82
2023/09/13 10:11:14;;;;;;;0.47;0.10;;;19.60;99.90;;;;;;4940724;28;20037;-83
2023/09/13 10:13:41;;;;;;;0.30;0.10;;;20.20;99.90;;;;;;4923605;29;20036;-83
2023/09/13 10:16:11;;;;;;;0.82;0.10;;;19.70;99.90;;;;;;4928463;29;20028;-82
2023/09/13 10:18:48;;;;;;;0.52;0.15;;;19.70;99.90;;;;;;4935751;29;20103;-84
2023/09/13 10:21:15;;;;;;;0.55;0.10;;;19.60;99.90;;;;;;4935032;29;20114;-84
2023/09/13 10:23:45;;;;;;;0.70;0.10;;;19.80;99.90;;;;;;4924427;29;20431;-83
2023/09/13 10:26:15;;;;;;;0.65;0.15;;;20.10;99.90;;;;;;4923821;29;20051;-84
2023/09/13 10:28:42;;;;;;;;;;;20.20;99.90;;;;;;4908329;29;20043;-82
2023/09/13 10:31:20;;;;;;;1.58;0.17;;;20.10;99.90;;;;;;4941443;29;20015;-83
2023/09/13 10:33:52;;;;;;;0.40;0.10;;;19.50;99.90;;;;;;4924585;29;20054;-80
2023/09/13 10:36:34;;;;;;;0.85;0.20;;;19.60;99.90;;;;;;4927535;29;20097;-81
2023/09/13 10:39:15;;;;;;;0.85;0.10;;;20.00;99.90;;;;;;4924239;29;20373;-82
2023/09/13 10:41:57;;;;;;;0.52;0.10;;;20.00;99.90;;;;;;4942311;29;20040;-80
2023/09/13 10:44:22;;;;;;;1.55;0.10;;;19.80;99.90;;;;;;4924027;29;20503;-86
2023/09/13 10:46:49;;;;;;;5.10;0.20;;;19.50;99.90;;;;;;4924180;29;20106;-82
2023/09/13 10:49:15;;;;;;;1.02;0.20;;;19.50;99.90;;;;;;4925341;29;20032;-80
2023/09/13 10:51:43;;;;;;;0.85;0.20;;;19.00;99.90;;;;;;4942509;28;20038;-80
2023/09/13 10:54:09;;;;;;;0.90;0.20;;;18.90;99.90;;;;;;4925838;29;20522;-82
2023/09/13 10:56:35;;;;;;;1.33;0.22;;;18.60;99.90;;;;;;4938135;29;20034;-83
2023/09/13 10:59:03;;;;;;;5.03;0.38;;;18.60;99.90;;;;;;4924941;29;20031;-80
2023/09/13 11:01:30;;;;;;;1.27;0.30;;;18.40;99.90;;;;;;4936867;29;20034;-80
2023/09/13 11:03:56;;;;;;;1.85;0.40;;;18.40;99.90;;;;;;4940249;29;20067;-80
2023/09/13 11:06:24;;;;;;;1.70;0.40;;;18.60;99.90;;;;;;4924156;29;20108;-84
2023/09/13 11:08:50;;;;;;;2.00;0.30;;;18.60;99.90;;;;;;4938516;28;20063;-81
2023/09/13 11:11:18;;;;;;;1.60;0.30;;;18.50;99.90;;;;;;4943552;29;20113;-81
2023/09/13 11:13:53;;;;;;;2.05;0.40;;;18.50;99.90;;;;;;4926212;28;20039;-80
2023/09/13 11:16:22;;;;;;;1.88;0.32;;;18.50;99.90;;;;;;4943134;29;20122;-85
2023/09/13 11:18:49;;;;;;;1.55;0.30;;;18.50;99.90;;;;;;4943071;29;20023;-81
2023/09/13 11:21:26;;;;;;;1.95;0.30;;;18.40;99.90;;;;;;4929519;29;20023;-80
2023/09/13 11:23:52;;;;;;;1.88;0.30;;;18.30;99.90;;;;;;4942725;29;20373;-82
2023/09/13 11:26:43;;;;;;;3.15;0.40;;;18.30;99.90;;;;;;4928151;29;20034;-78
2023/09/13 11:29:24;;;;;;;2.65;0.40;;;18.10;99.90;;;;;;4935380;29;20214;-79
2023/09/13 11:31:57;;;;;;;3.28;0.50;;;18.20;99.90;;;;;;4927371;29;20155;-80
2023/09/13 11:34:24;;;;;;;4.05;0.45;;;18.50;99.90;;;;;;4926553;29;20126;-80
2023/09/13 11:37:05;;;;;;;2.75;0.55;;;18.60;99.90;;;;;;4938519;29;20032;-80
2023/09/13 11:39:31;;;;;;;3.63;0.68;;;18.40;99.90;;;;;;4943330;29;20105;-88
2023/09/13 11:41:57;;;;;;;3.97;0.63;;;18.50;99.90;;;;;;4943882;28;20048;-85
2023/09/13 11:44:24;;;;;;;2.53;0.40;;;18.40;99.90;;;;;;4945098;29;20035;-85
2023/09/13 11:46:51;;;;;;;4.50;0.75;;;18.40;99.90;;;;;;4944117;29;20123;-80
2023/09/13 11:49:22;;;;;;;3.88;0.50;;;18.30;99.90;;;;;;4925757;29;20035;-80
2023/09/13 11:51:57;;;;;;;2.10;0.50;;;18.30;99.90;;;;;;4941825;29;20115;-90
2023/09/13 11:54:24;;;;;;;3.40;0.55;;;18.40;99.90;;;;;;4936425;29;20106;-81
2023/09/13 11:56:52;;;;;;;2.10;0.40;;;18.30;99.90;;;;;;4944095;29;20050;-83
2023/09/13 11:59:24;;;;;;;2.03;0.40;;;18.20;99.90;;;;;;4931908;29;20483;-80
2023/09/13 12:01:50;;;;;;;3.55;0.50;;;18.10;99.90;;;;;;4927849;29;20497;-81
2023/09/13 12:04:16;;;;;;;3.95;0.40;;;17.90;99.90;;;;;;4926739;29;20188;-81
2023/09/13 12:06:47;;;;;;;3.00;0.40;;;17.90;99.90;;;;;;4937244;29;20050;-80
2023/09/13 12:09:15;;;;;;;3.97;0.40;;;18.10;99.90;;;;;;4943021;29;20031;-86
2023/09/13 12:11:42;;;;;;;3.05;0.60;;;18.00;99.90;;;;;;4942181;29;20172;-79
2023/09/13 12:14:11;;;;;;;2.40;0.30;;;18.10;99.90;;;;;;4928111;28;20027;-83
2023/09/13 12:16:38;;;;;;;1.85;0.30;;;18.10;99.90;;;;;;4941260;29;20020;-89
2023/09/13 12:19:05;;;;;;;2.25;0.40;;;18.20;99.90;;;;;;4940924;29;20483;-79
2023/09/13 12:21:32;;;;;;;1.77;0.30;;;18.40;99.90;;;;;;4925838;29;20493;-80
2023/09/13 12:23:57;;;;;;;2.97;0.40;;;18.40;99.90;;;;;;4925701;29;20031;-79
2023/09/13 12:26:26;;;;;;;1.73;0.30;;;18.60;99.90;;;;;;4930705;29;20051;-80
2023/09/13 12:28:53;;;;;;;1.77;0.35;;;18.40;99.90;;;;;;4943764;29;20376;-80
2023/09/13 12:31:20;;;;;;;2.38;0.38;;;18.70;99.90;;;;;;4943447;29;20043;-81
2023/09/13 12:33:48;;;;;;;2.13;0.38;;;19.10;99.90;;;;;;4928202;29;20070;-80
2023/09/13 12:36:14;;;;;;;4.93;0.40;;;19.30;99.90;;;;;;4925762;29;20024;-82
2023/09/13 12:38:43;;;;;;;2.00;0.40;;;19.60;99.90;;;;;;4930069;29;20110;-82
2023/09/13 12:41:10;;;;;;;3.92;0.40;;;19.40;99.90;;;;;;4925487;29;20051;-80
2023/09/13 12:43:39;;;;;;;1.58;0.30;;;19.50;99.90;;;;;;4926131;29;20053;-83
2023/09/13 12:46:06;;;;;;;1.73;0.30;;;19.70;99.90;;;;;;4944146;29;20019;-82